createdAt,value
2018-11-14T00:00:37.827Z,98.90
2018-11-14T00:03:09.504Z,98.60
2018-11-14T00:05:38.257Z,98.50
2018-11-14T00:08:06.992Z,98.50
2018-11-14T00:10:35.604Z,98.50
2018-11-14T00:13:04.134Z,98.50
2018-11-14T00:15:32.736Z,98.60
2018-11-14T00:18:01.317Z,98.60
2018-11-14T00:20:31.599Z,98.50
2018-11-14T00:23:14.125Z,98.50
2018-11-14T00:25:42.752Z,98.60
2018-11-14T00:28:11.840Z,98.80
2018-11-14T00:30:41.578Z,98.90
2018-11-14T00:33:10.108Z,98.70
2018-11-14T00:35:38.775Z,98.70
2018-11-14T00:38:07.350Z,98.80
2018-11-14T00:40:35.904Z,98.80
2018-11-14T00:43:04.927Z,98.80
2018-11-14T00:45:33.488Z,98.80
2018-11-14T00:48:02.062Z,98.90
2018-11-14T00:50:30.705Z,98.90
2018-11-14T00:52:59.178Z,98.90
2018-11-14T00:55:27.791Z,98.80
2018-11-14T00:57:56.756Z,98.90
2018-11-14T01:00:26.042Z,99.10
2018-11-14T01:02:55.137Z,98.80
2018-11-14T01:05:23.747Z,98.70
2018-11-14T01:07:52.219Z,98.70
2018-11-14T01:10:21.791Z,98.60
2018-11-14T01:12:50.935Z,98.60
2018-11-14T01:15:20.683Z,98.50
2018-11-14T01:17:49.156Z,98.40
2018-11-14T01:20:18.729Z,98.40
2018-11-14T01:22:47.473Z,98.30
2018-11-14T01:25:16.716Z,98.30
2018-11-14T01:27:45.605Z,98.60
2018-11-14T01:30:17.191Z,98.60
2018-11-14T01:32:46.625Z,98.70
2018-11-14T01:35:15.890Z,98.70
2018-11-14T01:37:44.407Z,98.60
2018-11-14T01:40:21.577Z,98.50
2018-11-14T01:42:51.353Z,98.50
2018-11-14T01:45:19.951Z,98.60
2018-11-14T01:47:48.571Z,98.60
2018-11-14T01:50:17.251Z,98.60
2018-11-14T01:52:45.779Z,98.50
2018-11-14T01:55:15.576Z,98.50
2018-11-14T01:57:44.075Z,98.50
2018-11-14T02:04:14.326Z,98.50
2018-11-14T02:07:03.819Z,98.50
2018-11-14T02:09:33.243Z,98.30
2018-11-14T02:12:01.748Z,98.40
2018-11-14T02:14:48.162Z,98.50
2018-11-14T02:17:41.988Z,98.60
2018-11-14T02:23:13.796Z,98.60
2018-11-14T02:30:58.990Z,99.10
2018-11-14T02:33:48.422Z,99.20
2018-11-14T02:36:32.641Z,98.90
2018-11-14T02:39:23.037Z,98.80
2018-11-14T02:42:01.335Z,98.80
2018-11-14T02:44:34.525Z,98.80
2018-11-14T02:47:03.066Z,98.80
2018-11-14T02:49:32.606Z,98.70
2018-11-14T02:52:01.169Z,98.90
2018-11-14T02:54:29.738Z,98.90
2018-11-14T02:56:58.262Z,98.90
2018-11-14T02:59:26.775Z,98.80
2018-11-14T03:01:55.334Z,98.80
2018-11-14T03:04:23.817Z,99.10
2018-11-14T03:06:52.342Z,98.90
2018-11-14T03:09:20.955Z,99.00
2018-11-14T03:11:49.489Z,99.10
2018-11-14T03:14:24.622Z,99.00
2018-11-14T03:16:53.096Z,98.90
2018-11-14T03:19:21.592Z,99.10
2018-11-14T03:21:50.146Z,98.90
2018-11-14T03:24:18.686Z,99.00
2018-11-14T03:26:47.208Z,98.90
2018-11-14T03:29:15.757Z,98.80
2018-11-14T03:31:44.322Z,99.00
2018-11-14T03:34:12.836Z,98.80
2018-11-14T03:36:41.354Z,98.80
2018-11-14T03:39:10.365Z,98.80
2018-11-14T03:41:38.886Z,98.90
2018-11-14T03:44:07.540Z,99.00
2018-11-14T03:46:36.015Z,99.10
2018-11-14T03:49:04.699Z,98.90
2018-11-14T03:51:33.323Z,99.00
2018-11-14T03:54:01.849Z,99.10
2018-11-14T03:56:30.373Z,99.10
2018-11-14T03:58:58.936Z,99.10
2018-11-14T04:01:27.455Z,99.10
2018-11-14T04:03:55.956Z,99.20
2018-11-14T04:06:24.476Z,99.40
2018-11-14T04:08:52.988Z,99.10
2018-11-14T04:11:21.543Z,99.00
2018-11-14T04:13:50.056Z,99.00
2018-11-14T04:16:18.538Z,99.10
2018-11-14T04:18:47.058Z,99.40
2018-11-14T04:21:15.612Z,99.40
2018-11-14T04:23:49.368Z,99.50
2018-11-14T04:26:17.934Z,99.20
2018-11-14T04:28:47.021Z,99.20
2018-11-14T04:31:15.758Z,99.30
2018-11-14T04:33:44.659Z,99.20
2018-11-14T04:36:13.182Z,99.30
2018-11-14T04:38:41.738Z,99.80
2018-11-14T04:41:10.281Z,99.60
2018-11-14T04:43:38.753Z,99.70
2018-11-14T04:46:07.258Z,99.50
2018-11-14T04:48:35.840Z,99.50
2018-11-14T04:51:04.684Z,99.60
2018-11-14T04:53:33.209Z,99.30
2018-11-14T04:56:01.753Z,99.30
2018-11-14T04:58:30.255Z,99.40
2018-11-14T05:00:58.769Z,99.50
2018-11-14T05:03:27.347Z,99.60
2018-11-14T05:05:55.864Z,99.50
2018-11-14T05:08:24.422Z,99.40
2018-11-14T05:10:52.999Z,99.40
2018-11-14T05:13:21.526Z,99.40
2018-11-14T05:15:50.075Z,99.40
2018-11-14T05:18:18.609Z,99.20
2018-11-14T05:20:47.159Z,99.30
2018-11-14T05:23:15.667Z,99.30
2018-11-14T05:25:44.191Z,99.50
2018-11-14T05:28:12.717Z,99.30
2018-11-14T05:30:41.263Z,99.30
2018-11-14T05:33:09.817Z,99.70
2018-11-14T05:35:38.321Z,99.40
2018-11-14T05:38:06.840Z,99.50
2018-11-14T05:40:35.409Z,99.70
2018-11-14T05:43:04.056Z,99.60
2018-11-14T05:45:32.574Z,99.60
2018-11-14T05:48:01.108Z,99.40
2018-11-14T05:50:29.601Z,99.40
2018-11-14T05:52:58.088Z,99.40
2018-11-14T05:55:26.852Z,99.60
2018-11-14T05:57:55.430Z,99.40
2018-11-14T06:00:31.261Z,99.50
2018-11-14T06:03:00.854Z,99.30
2018-11-14T06:05:29.447Z,99.40
2018-11-14T06:07:57.941Z,99.40
2018-11-14T06:10:26.583Z,99.50
2018-11-14T06:12:56.430Z,99.40
2018-11-14T06:15:25.011Z,99.30
2018-11-14T06:17:54.514Z,99.40
2018-11-14T06:20:23.285Z,99.30
2018-11-14T06:22:52.418Z,99.30
2018-11-14T06:25:25.176Z,99.40
2018-11-14T06:27:55.597Z,99.50
2018-11-14T06:30:24.451Z,99.40
2018-11-14T06:32:53.654Z,99.40
2018-11-14T06:35:22.544Z,99.40
2018-11-14T06:37:51.841Z,99.50
2018-11-14T06:40:20.523Z,99.40
2018-11-14T06:42:49.102Z,99.40
2018-11-14T06:45:19.844Z,99.50
2018-11-14T06:47:49.472Z,99.50
2018-11-14T06:50:18.005Z,99.50
2018-11-14T06:52:47.587Z,99.60
2018-11-14T06:55:17.436Z,99.60
2018-11-14T06:57:46.012Z,99.60
2018-11-14T07:00:16.837Z,99.70
2018-11-14T07:02:46.319Z,99.80
2018-11-14T07:05:17.266Z,99.70
2018-11-14T07:07:46.231Z,99.70
2018-11-14T07:10:17.600Z,99.70
2018-11-14T07:12:46.244Z,99.60
2018-11-14T07:15:17.976Z,99.60
2018-11-14T07:17:47.126Z,99.50
2018-11-14T07:20:22.146Z,99.70
2018-11-14T07:22:51.726Z,99.60
2018-11-14T07:25:20.688Z,99.70
2018-11-14T07:27:49.353Z,99.80
2018-11-14T07:30:19.774Z,99.70
2018-11-14T07:32:50.754Z,99.70
2018-11-14T07:35:19.531Z,99.70
2018-11-14T07:39:00.702Z,99.60
2018-11-14T07:41:34.563Z,99.60
2018-11-14T07:44:03.151Z,99.60
2018-11-14T07:46:32.521Z,99.30
2018-11-14T07:49:01.370Z,99.20
2018-11-14T07:51:29.986Z,99.50
2018-11-14T07:53:58.803Z,99.50
2018-11-14T07:56:27.456Z,99.30
2018-11-14T07:58:56.092Z,99.10
2018-11-14T08:01:24.805Z,99.10
2018-11-14T08:03:53.336Z,99.20
2018-11-14T08:09:39.807Z,99.50
2018-11-14T08:12:08.480Z,99.20
2018-11-14T08:14:36.974Z,99.10
2018-11-14T08:17:05.574Z,98.70
2018-11-14T08:19:34.094Z,99.10
2018-11-14T08:22:02.560Z,99.00
2018-11-14T08:24:31.057Z,98.90
2018-11-14T08:26:59.594Z,98.60
2018-11-14T08:29:28.075Z,98.50
2018-11-14T08:31:56.604Z,98.20
2018-11-14T08:34:25.135Z,97.90
2018-11-14T08:36:53.613Z,97.90
2018-11-14T08:39:22.169Z,97.80
2018-11-14T08:41:50.631Z,98.00
2018-11-14T08:44:20.006Z,98.20
2018-11-14T08:46:48.516Z,97.80
2018-11-14T08:49:17.088Z,97.60
2018-11-14T08:51:45.642Z,97.70
2018-11-14T08:54:14.127Z,97.00
2018-11-14T08:56:42.708Z,97.20
2018-11-14T08:59:11.272Z,97.20
2018-11-14T09:01:39.915Z,97.00
2018-11-14T09:04:08.497Z,96.80
2018-11-14T09:06:37.012Z,96.60
2018-11-14T09:09:08.444Z,97.20
2018-11-14T09:11:37.009Z,97.00
2018-11-14T09:14:05.861Z,96.80
2018-11-14T09:16:34.366Z,96.90
2018-11-14T09:19:02.879Z,96.80
2018-11-14T09:21:31.363Z,96.60
2018-11-14T09:23:59.904Z,96.50
2018-11-14T09:26:28.407Z,96.40
2018-11-14T09:28:56.992Z,96.20
2018-11-14T09:31:25.565Z,96.00
2018-11-14T09:33:54.163Z,95.80
2018-11-14T09:36:22.662Z,95.90
2018-11-14T09:38:51.157Z,95.90
2018-11-14T09:41:19.783Z,95.60
2018-11-14T09:43:48.233Z,95.60
2018-11-14T09:46:16.737Z,95.50
2018-11-14T09:48:45.294Z,95.70
2018-11-14T09:51:13.843Z,95.70
2018-11-14T09:53:42.449Z,95.80
2018-11-14T09:56:11.046Z,95.30
2018-11-14T09:58:39.668Z,95.20
2018-11-14T10:01:08.202Z,95.30
2018-11-14T10:03:36.869Z,95.20
2018-11-14T10:06:09.506Z,95.30
2018-11-14T10:08:38.884Z,95.20
2018-11-14T10:11:07.364Z,94.80
2018-11-14T10:13:35.967Z,94.80
2018-11-14T10:16:04.499Z,94.60
2018-11-14T10:19:16.775Z,94.60
2018-11-14T10:22:00.911Z,94.80
2018-11-14T10:24:47.857Z,94.40
2018-11-14T10:27:16.952Z,94.40
2018-11-14T10:29:45.711Z,94.20
2018-11-14T10:32:14.327Z,94.00
2018-11-14T10:34:42.869Z,93.70
2018-11-14T10:37:11.396Z,93.70
2018-11-14T10:39:39.959Z,93.50
2018-11-14T10:42:08.527Z,93.10
2018-11-14T10:44:37.071Z,92.00
2018-11-14T10:47:05.659Z,92.30
2018-11-14T10:49:34.247Z,91.90
2018-11-14T10:52:02.760Z,91.80
2018-11-14T10:54:31.360Z,91.10
2018-11-14T10:56:59.924Z,92.70
2018-11-14T10:59:28.504Z,93.70
2018-11-14T11:02:02.460Z,92.20
2018-11-14T11:04:36.337Z,91.30
2018-11-14T11:07:10.358Z,91.70
2018-11-14T11:09:44.212Z,91.30
2018-11-14T11:12:18.149Z,91.20
2018-11-14T11:14:51.997Z,91.10
2018-11-14T11:17:25.665Z,91.20
2018-11-14T11:19:54.344Z,91.00
2018-11-14T11:22:29.615Z,90.90
2018-11-14T11:24:58.165Z,90.60
2018-11-14T11:27:26.647Z,90.30
2018-11-14T11:29:55.195Z,90.60
2018-11-14T11:32:23.738Z,90.60
2018-11-14T11:34:52.202Z,90.40
2018-11-14T11:37:20.740Z,90.50
2018-11-14T11:39:49.231Z,90.40
2018-11-14T11:42:17.792Z,90.20
2018-11-14T11:44:47.357Z,90.50
2018-11-14T11:47:15.858Z,90.10
2018-11-14T11:49:44.353Z,90.20
2018-11-14T11:52:12.850Z,89.50
2018-11-14T11:54:41.352Z,89.70
2018-11-14T11:57:09.818Z,90.00
2018-11-14T11:59:38.421Z,90.00
2018-11-14T12:02:06.998Z,89.60
2018-11-14T12:04:35.496Z,90.00
2018-11-14T12:07:04.567Z,89.80
2018-11-14T12:09:33.128Z,89.90
2018-11-14T12:12:01.739Z,89.50
2018-11-14T12:14:30.303Z,89.50
2018-11-14T12:16:58.890Z,88.70
2018-11-14T12:19:27.535Z,88.80
2018-11-14T12:21:56.096Z,88.80
2018-11-14T12:24:25.267Z,88.60
2018-11-14T12:27:28.376Z,88.40
2018-11-14T12:29:57.742Z,87.50
2018-11-14T12:32:26.351Z,87.70
2018-11-14T12:34:55.945Z,87.90
2018-11-14T12:37:24.475Z,88.40
2018-11-14T12:39:53.129Z,87.70
2018-11-14T12:42:21.885Z,88.10
2018-11-14T12:44:51.030Z,88.10
2018-11-14T12:47:19.825Z,88.00
2018-11-14T12:49:48.328Z,87.90
2018-11-14T12:52:16.825Z,87.70
2018-11-14T12:54:52.212Z,87.90
2018-11-14T12:57:20.783Z,87.60
2018-11-14T12:59:49.265Z,88.00
2018-11-14T13:02:18.169Z,87.90
2018-11-14T13:04:47.014Z,88.50
2018-11-14T13:07:15.536Z,88.60
2018-11-14T13:09:44.228Z,88.70
2018-11-14T13:12:12.815Z,89.30
2018-11-14T13:14:41.368Z,88.80
2018-11-14T13:17:09.911Z,88.70
2018-11-14T13:19:38.584Z,89.20
2018-11-14T13:22:07.646Z,89.80
2018-11-14T13:24:42.491Z,90.00
2018-11-14T13:27:11.369Z,90.10
2018-11-14T13:29:40.072Z,90.00
2018-11-14T13:32:08.791Z,90.00
2018-11-14T13:34:37.266Z,89.70
2018-11-14T13:37:05.970Z,90.00
2018-11-14T13:39:34.591Z,90.20
2018-11-14T13:42:03.458Z,90.40
2018-11-14T13:44:32.136Z,90.40
2018-11-14T13:47:00.764Z,90.30
2018-11-14T13:49:29.449Z,90.40
2018-11-14T13:54:42.495Z,90.40
2018-11-14T13:57:11.139Z,90.70
2018-11-14T13:59:39.777Z,91.30
2018-11-14T14:02:08.333Z,91.40
2018-11-14T14:04:36.838Z,91.40
2018-11-14T14:07:05.433Z,91.70
2018-11-14T14:09:34.078Z,91.70
2018-11-14T14:12:02.612Z,91.90
2018-11-14T14:14:31.090Z,92.00
2018-11-14T14:16:59.591Z,92.30
2018-11-14T14:19:28.118Z,92.50
2018-11-14T14:21:56.704Z,92.60
2018-11-14T14:24:25.276Z,92.70
2018-11-14T14:26:53.779Z,92.90
2018-11-14T14:29:22.620Z,92.90
2018-11-14T14:31:51.134Z,93.00
2018-11-14T14:34:19.656Z,93.20
2018-11-14T14:36:48.260Z,93.20
2018-11-14T14:39:16.781Z,93.40
2018-11-14T14:41:45.292Z,93.50
2018-11-14T14:44:13.767Z,93.50
2018-11-14T14:46:42.309Z,93.40
2018-11-14T14:49:10.903Z,93.50
2018-11-14T14:51:39.499Z,93.70
2018-11-14T14:54:08.083Z,93.90
2018-11-14T14:56:36.641Z,94.30
2018-11-14T14:59:05.487Z,94.30
2018-11-14T15:01:34.075Z,94.50
2018-11-14T15:04:03.263Z,94.70
2018-11-14T15:06:36.084Z,94.60
2018-11-14T15:09:06.974Z,94.80
2018-11-14T15:11:35.582Z,95.10
2018-11-14T15:14:04.713Z,95.30
2018-11-14T15:16:34.083Z,95.30
2018-11-14T15:19:02.699Z,95.70
2018-11-14T15:21:31.333Z,95.50
2018-11-14T15:23:59.815Z,95.70
2018-11-14T15:26:28.585Z,95.80
2018-11-14T15:28:57.264Z,95.90
2018-11-14T15:31:25.724Z,96.10
2018-11-14T15:33:54.428Z,96.10
2018-11-14T15:36:41.424Z,96.20
2018-11-14T15:39:11.707Z,96.20
2018-11-14T15:41:40.518Z,96.30
2018-11-14T15:44:09.187Z,96.30
2018-11-14T15:46:37.798Z,96.30
2018-11-14T15:49:06.407Z,96.30
2018-11-14T15:51:43.059Z,96.30
2018-11-14T15:54:11.535Z,96.30
2018-11-14T15:56:40.068Z,96.40
2018-11-14T15:59:08.645Z,96.40
2018-11-14T16:01:37.203Z,96.30
2018-11-14T16:04:06.206Z,96.30
2018-11-14T16:06:34.817Z,96.30
2018-11-14T16:09:03.788Z,96.40
2018-11-14T16:11:32.549Z,96.50
2018-11-14T16:14:01.261Z,96.50
2018-11-14T16:16:29.780Z,96.60
2018-11-14T16:18:58.373Z,96.80
2018-11-14T16:21:28.677Z,96.70
2018-11-14T16:23:57.141Z,96.60
2018-11-14T16:26:25.904Z,96.70
2018-11-14T16:28:54.429Z,96.80
2018-11-14T16:31:24.381Z,96.80
2018-11-14T16:33:53.333Z,97.00
2018-11-14T16:36:22.000Z,96.80
2018-11-14T16:38:50.528Z,97.00
2018-11-14T16:41:19.141Z,97.10
2018-11-14T16:43:47.757Z,97.20
2018-11-14T16:46:16.253Z,97.30
2018-11-14T16:48:45.795Z,98.30
2018-11-14T16:51:14.271Z,97.80
2018-11-14T16:53:42.812Z,97.70
2018-11-14T16:56:11.299Z,97.60
2018-11-14T16:58:39.967Z,97.70
2018-11-14T17:01:09.206Z,97.80
2018-11-14T17:03:37.772Z,97.80
2018-11-14T17:06:07.314Z,97.80
2018-11-14T17:08:35.866Z,98.00
2018-11-14T17:11:04.540Z,98.00
2018-11-14T17:13:33.145Z,98.00
2018-11-14T17:16:02.002Z,98.00
2018-11-14T17:18:30.696Z,97.90
2018-11-14T17:20:59.475Z,97.80
2018-11-14T17:23:28.101Z,97.70
2018-11-14T17:25:58.299Z,97.70
2018-11-14T17:28:26.843Z,97.70
2018-11-14T17:30:55.347Z,97.60
2018-11-14T17:33:24.289Z,97.60
2018-11-14T17:35:53.008Z,97.40
2018-11-14T17:38:21.498Z,97.30
2018-11-14T17:40:51.290Z,97.30
2018-11-14T17:43:19.972Z,97.30
2018-11-14T17:45:49.162Z,97.30
2018-11-14T17:48:18.043Z,97.30
2018-11-14T17:50:46.665Z,97.20
2018-11-14T17:55:53.016Z,97.20
2018-11-14T17:58:22.788Z,97.30
2018-11-14T18:00:52.754Z,97.30
2018-11-14T18:03:28.184Z,97.30
2018-11-14T18:05:59.502Z,97.10
2018-11-14T18:08:28.447Z,97.20
2018-11-14T18:10:56.918Z,97.20
2018-11-14T18:13:25.622Z,97.00
2018-11-14T18:15:54.307Z,96.70
2018-11-14T18:18:23.077Z,96.80
2018-11-14T18:20:51.741Z,96.70
2018-11-14T18:23:20.310Z,96.70
2018-11-14T18:25:49.324Z,96.70
2018-11-14T18:28:17.827Z,96.70
2018-11-14T18:30:48.265Z,96.90
2018-11-14T18:33:17.082Z,96.90
2018-11-14T18:35:45.793Z,97.10
2018-11-14T18:38:14.379Z,97.20
2018-11-14T18:40:43.168Z,97.30
2018-11-14T18:43:11.855Z,97.40
2018-11-14T18:45:41.967Z,97.40
2018-11-14T18:48:10.559Z,97.50
2018-11-14T18:50:39.243Z,97.50
2018-11-14T18:53:07.932Z,97.50
2018-11-14T18:55:50.405Z,97.50
2018-11-14T18:58:19.313Z,97.70
2018-11-14T19:00:47.865Z,97.70
2018-11-14T19:03:16.473Z,97.50
2018-11-14T19:05:45.105Z,97.50
2018-11-14T19:08:13.961Z,97.50
2018-11-14T19:10:43.174Z,97.40
2018-11-14T19:13:11.759Z,97.40
2018-11-14T19:15:40.338Z,97.00
2018-11-14T19:18:09.008Z,96.80
2018-11-14T19:20:37.577Z,96.50
2018-11-14T19:23:06.843Z,96.40
2018-11-14T19:25:36.459Z,96.60
2018-11-14T19:28:05.290Z,96.40
2018-11-14T19:30:35.678Z,96.30
2018-11-14T19:33:04.520Z,96.20
2018-11-14T19:35:33.071Z,96.40
2018-11-14T19:38:02.035Z,96.40
2018-11-14T19:40:32.008Z,96.40
2018-11-14T19:43:01.852Z,96.40
2018-11-14T19:45:33.037Z,96.40
2018-11-14T19:48:01.669Z,96.50
2018-11-14T19:50:30.311Z,96.50
2018-11-14T19:52:58.908Z,96.70
2018-11-14T19:55:28.104Z,96.70
2018-11-14T19:57:58.235Z,96.70
2018-11-14T20:00:34.627Z,96.90
2018-11-14T20:03:04.597Z,96.70
2018-11-14T20:05:33.195Z,96.70
2018-11-14T20:08:01.759Z,96.60
2018-11-14T20:10:32.650Z,96.50
2018-11-14T20:13:01.214Z,96.50
2018-11-14T20:15:32.086Z,96.60
2018-11-14T20:18:00.739Z,96.50
2018-11-14T20:20:30.666Z,96.60
2018-11-14T20:22:59.372Z,96.60
2018-11-14T20:25:28.207Z,96.50
2018-11-14T20:27:57.015Z,96.50
2018-11-14T20:30:27.102Z,96.50
2018-11-14T20:32:57.209Z,96.70
2018-11-14T20:35:26.631Z,96.80
2018-11-14T20:37:55.896Z,96.80
2018-11-14T20:40:26.187Z,96.90
2018-11-14T20:42:55.423Z,96.90
2018-11-14T20:45:26.149Z,96.80
2018-11-14T20:47:54.786Z,96.90
2018-11-14T20:50:24.356Z,97.00
2018-11-14T20:52:55.965Z,97.10
2018-11-14T20:55:24.695Z,97.20
2018-11-14T20:57:53.306Z,97.20
2018-11-14T21:00:29.791Z,97.10
2018-11-14T21:02:58.572Z,97.20
2018-11-14T21:05:28.960Z,97.30
2018-11-14T21:07:58.207Z,97.40
2018-11-14T21:10:29.168Z,97.40
2018-11-14T21:12:58.310Z,97.50
2018-11-14T21:15:28.419Z,97.60
2018-11-14T21:17:58.137Z,97.60
2018-11-14T21:20:26.713Z,97.70
2018-11-14T21:22:55.467Z,97.80
2018-11-14T21:25:24.856Z,98.00
2018-11-14T21:27:54.275Z,97.90
2018-11-14T21:30:24.319Z,98.00
2018-11-14T21:32:52.922Z,98.10
2018-11-14T21:35:25.012Z,98.20
2018-11-14T21:37:59.132Z,98.10
2018-11-14T21:40:28.001Z,98.20
2018-11-14T21:42:56.644Z,98.30
2018-11-14T21:45:26.887Z,98.30
2018-11-14T21:48:00.818Z,98.30
2018-11-14T21:50:30.305Z,98.30
2018-11-14T21:52:59.608Z,98.40
2018-11-14T21:55:28.135Z,98.50
2018-11-14T21:57:56.777Z,98.40
2018-11-14T22:00:31.410Z,98.40
2018-11-14T22:03:00.302Z,98.60
2018-11-14T22:08:31.611Z,98.40
2018-11-14T22:11:00.160Z,98.40
2018-11-14T22:13:28.756Z,98.40
2018-11-14T22:15:57.344Z,98.50
2018-11-14T22:18:25.981Z,98.50
2018-11-14T22:20:54.505Z,98.50
2018-11-14T22:23:23.116Z,98.40
2018-11-14T22:25:51.788Z,98.50
2018-11-14T22:28:20.670Z,98.50
2018-11-14T22:30:49.342Z,98.50
2018-11-14T22:33:17.900Z,98.60
2018-11-14T22:37:24.806Z,98.60
2018-11-14T22:39:53.592Z,98.60
2018-11-14T22:42:23.097Z,98.60
2018-11-14T22:44:52.712Z,98.70
2018-11-14T22:47:21.630Z,98.60
2018-11-14T22:49:50.128Z,98.50
2018-11-14T22:52:19.086Z,98.60
2018-11-14T22:54:47.674Z,98.60
2018-11-14T22:57:16.404Z,98.60
2018-11-14T22:59:44.974Z,98.50
2018-11-14T23:02:13.858Z,98.50
2018-11-14T23:04:42.654Z,98.40
2018-11-14T23:07:11.210Z,98.40
2018-11-14T23:09:39.755Z,98.30
2018-11-14T23:12:08.268Z,98.30
2018-11-14T23:14:37.734Z,98.40
2018-11-14T23:17:06.437Z,98.40
2018-11-14T23:19:35.007Z,98.40
2018-11-14T23:22:03.495Z,98.40
2018-11-14T23:24:32.082Z,98.40
2018-11-14T23:27:00.585Z,98.30
2018-11-14T23:29:29.151Z,98.00
2018-11-14T23:31:57.692Z,98.00
2018-11-14T23:34:26.187Z,97.90
2018-11-14T23:36:54.804Z,97.80
2018-11-14T23:39:23.461Z,97.80
2018-11-14T23:41:51.944Z,97.80
2018-11-14T23:44:20.464Z,97.80
2018-11-14T23:46:48.982Z,97.80
2018-11-14T23:49:17.492Z,97.80
2018-11-14T23:51:53.417Z,97.70
2018-11-14T23:54:21.905Z,97.90
2018-11-14T23:56:50.447Z,97.80
2018-11-14T23:59:19.046Z,97.90
